sensor_id;sensor_type;location;lat;lon;timestamp;pressure;altitude;pressure_sealevel;temperature;humidity
45040;BME280;30778;53.574;7.770;2022-08-21T00:02:22;101628.56;;;13.82;48.93
45040;BME280;30778;53.574;7.770;2022-08-21T00:04:48;101622.09;;;13.91;48.91
45040;BME280;30778;53.574;7.770;2022-08-21T00:07:14;101618.19;;;13.79;49.04
45040;BME280;30778;53.574;7.770;2022-08-21T00:09:40;101620.50;;;13.87;48.51
45040;BME280;30778;53.574;7.770;2022-08-21T00:12:06;101617.16;;;13.83;48.62
45040;BME280;30778;53.574;7.770;2022-08-21T00:14:32;101618.44;;;13.73;48.65
45040;BME280;30778;53.574;7.770;2022-08-21T00:16:58;101612.00;;;13.80;48.92
45040;BME280;30778;53.574;7.770;2022-08-21T00:19:23;101611.13;;;13.81;48.81
45040;BME280;30778;53.574;7.770;2022-08-21T00:21:51;101611.13;;;13.81;48.29
45040;BME280;30778;53.574;7.770;2022-08-21T00:24:18;101612.94;;;13.79;48.53
45040;BME280;30778;53.574;7.770;2022-08-21T00:26:44;101612.09;;;13.79;48.71
45040;BME280;30778;53.574;7.770;2022-08-21T00:29:09;101611.97;;;13.82;48.47
45040;BME280;30778;53.574;7.770;2022-08-21T00:31:35;101607.81;;;13.76;48.63
45040;BME280;30778;53.574;7.770;2022-08-21T00:34:01;101610.38;;;13.78;48.80
45040;BME280;30778;53.574;7.770;2022-08-21T00:36:27;101599.41;;;13.68;48.62
45040;BME280;30778;53.574;7.770;2022-08-21T00:38:53;101603.06;;;13.64;48.93
45040;BME280;30778;53.574;7.770;2022-08-21T00:41:18;101600.25;;;13.68;48.89
45040;BME280;30778;53.574;7.770;2022-08-21T00:43:43;101595.25;;;13.62;48.80
45040;BME280;30778;53.574;7.770;2022-08-21T00:46:10;101593.34;;;13.66;48.76
45040;BME280;30778;53.574;7.770;2022-08-21T00:48:35;101595.25;;;13.62;48.48
45040;BME280;30778;53.574;7.770;2022-08-21T00:51:11;101592.06;;;13.54;48.46
45040;BME280;30778;53.574;7.770;2022-08-21T00:53:40;101599.16;;;13.52;48.69
45040;BME280;30778;53.574;7.770;2022-08-21T00:56:09;101598.16;;;13.55;48.61
45040;BME280;30778;53.574;7.770;2022-08-21T00:58:36;101596.53;;;13.52;48.87
45040;BME280;30778;53.574;7.770;2022-08-21T01:01:05;101603.53;;;13.51;48.73
45040;BME280;30778;53.574;7.770;2022-08-21T01:03:31;101602.63;;;13.52;48.68
45040;BME280;30778;53.574;7.770;2022-08-21T01:05:56;101601.63;;;13.57;48.53
45040;BME280;30778;53.574;7.770;2022-08-21T01:08:22;101600.09;;;13.49;48.46
45040;BME280;30778;53.574;7.770;2022-08-21T01:10:49;101599.78;;;13.37;48.69
45040;BME280;30778;53.574;7.770;2022-08-21T01:13:17;101599.28;;;13.27;48.95
45040;BME280;30778;53.574;7.770;2022-08-21T01:15:45;101598.13;;;13.34;48.73
45040;BME280;30778;53.574;7.770;2022-08-21T01:18:13;101608.03;;;13.27;49.15
45040;BME280;30778;53.574;7.770;2022-08-21T01:20:43;101601.00;;;13.28;49.17
45040;BME280;30778;53.574;7.770;2022-08-21T01:23:09;101599.28;;;13.27;49.07
45040;BME280;30778;53.574;7.770;2022-08-21T01:25:35;101605.03;;;13.37;48.89
45040;BME280;30778;53.574;7.770;2022-08-21T01:28:06;101611.25;;;13.34;48.66
45040;BME280;30778;53.574;7.770;2022-08-21T01:30:35;101603.00;;;13.21;48.81
45040;BME280;30778;53.574;7.770;2022-08-21T01:33:01;101600.22;;;13.02;49.38
45040;BME280;30778;53.574;7.770;2022-08-21T01:35:27;101601.03;;;13.04;49.65
45040;BME280;30778;53.574;7.770;2022-08-21T01:37:53;101607.31;;;13.00;49.62
45040;BME280;30778;53.574;7.770;2022-08-21T01:40:18;101606.69;;;12.94;49.99
45040;BME280;30778;53.574;7.770;2022-08-21T01:42:45;101608.94;;;12.81;50.08
45040;BME280;30778;53.574;7.770;2022-08-21T01:45:11;101610.88;;;12.76;50.48
45040;BME280;30778;53.574;7.770;2022-08-21T01:47:38;101609.75;;;12.83;50.75
45040;BME280;30778;53.574;7.770;2022-08-21T01:50:11;101611.84;;;12.97;50.31
45040;BME280;30778;53.574;7.770;2022-08-21T01:52:37;101610.84;;;12.99;50.00
45040;BME280;30778;53.574;7.770;2022-08-21T01:55:05;101606.38;;;13.03;50.05
45040;BME280;30778;53.574;7.770;2022-08-21T01:57:30;101610.09;;;12.96;50.04
45040;BME280;30778;53.574;7.770;2022-08-21T01:59:58;101612.25;;;12.86;50.04
45040;BME280;30778;53.574;7.770;2022-08-21T02:02:23;101600.44;;;12.74;50.57
45040;BME280;30778;53.574;7.770;2022-08-21T02:04:49;101599.84;;;12.66;50.58
45040;BME280;30778;53.574;7.770;2022-08-21T02:07:14;101604.06;;;12.72;50.72
45040;BME280;30778;53.574;7.770;2022-08-21T02:09:41;101601.31;;;12.75;50.51
45040;BME280;30778;53.574;7.770;2022-08-21T02:12:10;101602.69;;;12.85;50.46
45040;BME280;30778;53.574;7.770;2022-08-21T02:14:36;101601.16;;;12.78;50.49
45040;BME280;30778;53.574;7.770;2022-08-21T02:17:02;101595.56;;;12.63;50.59
45040;BME280;30778;53.574;7.770;2022-08-21T02:19:28;101593.38;;;12.51;51.23
45040;BME280;30778;53.574;7.770;2022-08-21T02:21:54;101593.63;;;12.45;51.47
45040;BME280;30778;53.574;7.770;2022-08-21T02:24:20;101586.16;;;12.34;52.02
45040;BME280;30778;53.574;7.770;2022-08-21T02:26:45;101585.13;;;12.38;52.00
45040;BME280;30778;53.574;7.770;2022-08-21T02:29:11;101580.78;;;12.37;52.02
45040;BME280;30778;53.574;7.770;2022-08-21T02:31:36;101580.63;;;12.42;52.02
45040;BME280;30778;53.574;7.770;2022-08-21T02:34:02;101570.94;;;12.44;51.93
45040;BME280;30778;53.574;7.770;2022-08-21T02:36:27;101575.84;;;12.53;51.78
45040;BME280;30778;53.574;7.770;2022-08-21T02:38:53;101570.03;;;12.45;51.84
45040;BME280;30778;53.574;7.770;2022-08-21T02:41:20;101564.22;;;12.37;52.00
45040;BME280;30778;53.574;7.770;2022-08-21T02:43:46;101570.69;;;12.26;52.04
45040;BME280;30778;53.574;7.770;2022-08-21T02:46:15;101569.97;;;12.23;52.26
45040;BME280;30778;53.574;7.770;2022-08-21T02:48:41;101568.41;;;12.17;52.80
45040;BME280;30778;53.574;7.770;2022-08-21T02:51:10;101562.44;;;12.14;52.71
45040;BME280;30778;53.574;7.770;2022-08-21T02:53:36;101559.00;;;12.12;52.65
45040;BME280;30778;53.574;7.770;2022-08-21T02:56:04;101553.94;;;12.07;52.69
45040;BME280;30778;53.574;7.770;2022-08-21T02:58:34;101556.56;;;12.07;52.71
45040;BME280;30778;53.574;7.770;2022-08-21T03:01:00;101547.88;;;12.05;52.74
45040;BME280;30778;53.574;7.770;2022-08-21T03:03:27;101548.75;;;12.05;53.17
45040;BME280;30778;53.574;7.770;2022-08-21T03:05:54;101547.78;;;12.08;52.79
45040;BME280;30778;53.574;7.770;2022-08-21T03:08:20;101551.19;;;12.10;52.66
45040;BME280;30778;53.574;7.770;2022-08-21T03:10:48;101549.25;;;12.15;52.33
45040;BME280;30778;53.574;7.770;2022-08-21T03:13:15;101545.75;;;12.16;52.59
45040;BME280;30778;53.574;7.770;2022-08-21T03:15:41;101551.63;;;12.23;52.01
45040;BME280;30778;53.574;7.770;2022-08-21T03:18:08;101543.78;;;12.21;51.99
45040;BME280;30778;53.574;7.770;2022-08-21T03:20:36;101544.72;;;12.20;52.15
45040;BME280;30778;53.574;7.770;2022-08-21T03:23:03;101537.50;;;12.27;52.10
45040;BME280;30778;53.574;7.770;2022-08-21T03:25:29;101544.38;;;12.29;52.03
45040;BME280;30778;53.574;7.770;2022-08-21T03:27:57;101534.78;;;12.28;51.86
45040;BME280;30778;53.574;7.770;2022-08-21T03:30:23;101539.22;;;12.26;52.18
45040;BME280;30778;53.574;7.770;2022-08-21T03:32:48;101535.03;;;12.22;52.07
45040;BME280;30778;53.574;7.770;2022-08-21T03:35:15;101533.44;;;12.18;52.43
45040;BME280;30778;53.574;7.770;2022-08-21T03:37:40;101531.84;;;12.14;52.12
45040;BME280;30778;53.574;7.770;2022-08-21T03:40:07;101522.38;;;12.10;52.34
45040;BME280;30778;53.574;7.770;2022-08-21T03:42:33;101524.66;;;12.19;52.22
45040;BME280;30778;53.574;7.770;2022-08-21T03:45:00;101528.53;;;12.09;52.86
45040;BME280;30778;53.574;7.770;2022-08-21T03:47:26;101527.47;;;12.13;52.71
45040;BME280;30778;53.574;7.770;2022-08-21T03:49:52;101526.59;;;12.14;52.62
45040;BME280;30778;53.574;7.770;2022-08-21T03:52:18;101527.22;;;12.21;52.21
45040;BME280;30778;53.574;7.770;2022-08-21T03:54:44;101524.66;;;12.19;52.42
45040;BME280;30778;53.574;7.770;2022-08-21T03:57:10;101526.47;;;12.17;52.55
45040;BME280;30778;53.574;7.770;2022-08-21T03:59:37;101523.97;;;12.14;52.38
45040;BME280;30778;53.574;7.770;2022-08-21T04:02:04;101525.91;;;12.09;52.31
45040;BME280;30778;53.574;7.770;2022-08-21T04:04:30;101523.28;;;12.09;52.37
45040;BME280;30778;53.574;7.770;2022-08-21T04:06:56;101526.81;;;12.08;52.31
45040;BME280;30778;53.574;7.770;2022-08-21T04:09:23;101536.44;;;12.07;52.40
45040;BME280;30778;53.574;7.770;2022-08-21T04:11:49;101530.78;;;11.95;52.88
45040;BME280;30778;53.574;7.770;2022-08-21T04:14:16;101531.22;;;11.82;52.71
45040;BME280;30778;53.574;7.770;2022-08-21T04:16:42;101529.16;;;11.91;52.52
45040;BME280;30778;53.574;7.770;2022-08-21T04:19:11;101530.88;;;11.92;52.54
45040;BME280;30778;53.574;7.770;2022-08-21T04:21:39;101532.09;;;11.81;52.49
45040;BME280;30778;53.574;7.770;2022-08-21T04:24:06;101526.28;;;11.73;52.83
45040;BME280;30778;53.574;7.770;2022-08-21T04:26:33;101528.28;;;11.65;53.23
45040;BME280;30778;53.574;7.770;2022-08-21T04:29:00;101528.59;;;11.56;53.25
45040;BME280;30778;53.574;7.770;2022-08-21T04:31:26;101529.66;;;11.50;53.97
45040;BME280;30778;53.574;7.770;2022-08-21T04:33:51;101535.84;;;11.48;53.95
45040;BME280;30778;53.574;7.770;2022-08-21T04:36:17;101535.72;;;11.51;54.09
45040;BME280;30778;53.574;7.770;2022-08-21T04:38:43;101537.47;;;11.52;54.38
45040;BME280;30778;53.574;7.770;2022-08-21T04:41:08;101532.22;;;11.52;54.25
45040;BME280;30778;53.574;7.770;2022-08-21T04:43:34;101534.81;;;11.53;54.52
45040;BME280;30778;53.574;7.770;2022-08-21T04:46:00;101537.19;;;11.59;54.81
45040;BME280;30778;53.574;7.770;2022-08-21T04:48:26;101545.03;;;11.59;54.59
45040;BME280;30778;53.574;7.770;2022-08-21T04:51:09;101551.25;;;11.57;54.87
45040;BME280;30778;53.574;7.770;2022-08-21T04:53:44;101543.19;;;11.63;54.83
45040;BME280;30778;53.574;7.770;2022-08-21T04:58:53;101543.03;;;11.67;54.66
45040;BME280;30778;53.574;7.770;2022-08-21T05:01:23;101547.22;;;11.73;54.71
45040;BME280;30778;53.574;7.770;2022-08-21T05:03:53;101547.16;;;11.75;54.62
45040;BME280;30778;53.574;7.770;2022-08-21T05:06:20;101545.28;;;11.80;54.73
45040;BME280;30778;53.574;7.770;2022-08-21T05:08:48;101550.28;;;11.86;54.87
45040;BME280;30778;53.574;7.770;2022-08-21T05:11:14;101549.09;;;11.95;54.53
45040;BME280;30778;53.574;7.770;2022-08-21T05:13:40;101542.00;;;11.98;54.58
45040;BME280;30778;53.574;7.770;2022-08-21T05:16:06;101540.91;;;12.04;54.71
45040;BME280;30778;53.574;7.770;2022-08-21T05:18:32;101542.19;;;12.17;54.73
45040;BME280;30778;53.574;7.770;2022-08-21T05:20:58;101536.63;;;12.26;54.29
45040;BME280;30778;53.574;7.770;2022-08-21T05:23:23;101544.00;;;12.40;54.42
45040;BME280;30778;53.574;7.770;2022-08-21T05:25:50;101541.34;;;12.64;54.52
45040;BME280;30778;53.574;7.770;2022-08-21T05:28:16;101540.66;;;13.89;52.10
45040;BME280;30778;53.574;7.770;2022-08-21T05:30:43;101543.66;;;14.61;49.96
45040;BME280;30778;53.574;7.770;2022-08-21T05:33:09;101534.66;;;15.22;48.51
45040;BME280;30778;53.574;7.770;2022-08-21T05:35:35;101539.53;;;17.28;44.04
45040;BME280;30778;53.574;7.770;2022-08-21T05:38:01;101544.50;;;19.06;41.00
45040;BME280;30778;53.574;7.770;2022-08-21T05:40:27;101528.66;;;20.23;36.17
45040;BME280;30778;53.574;7.770;2022-08-21T05:42:54;101538.25;;;21.46;34.06
45040;BME280;30778;53.574;7.770;2022-08-21T05:45:20;101530.41;;;22.47;31.78
45040;BME280;30778;53.574;7.770;2022-08-21T05:47:46;101532.25;;;22.90;33.18
45040;BME280;30778;53.574;7.770;2022-08-21T05:50:12;101531.28;;;23.87;30.29
45040;BME280;30778;53.574;7.770;2022-08-21T05:52:37;101532.03;;;24.39;28.17
45040;BME280;30778;53.574;7.770;2022-08-21T05:55:03;101527.78;;;24.77;27.49
45040;BME280;30778;53.574;7.770;2022-08-21T05:57:29;101528.31;;;24.51;27.98
45040;BME280;30778;53.574;7.770;2022-08-21T05:59:55;101526.81;;;25.36;27.78
45040;BME280;30778;53.574;7.770;2022-08-21T06:02:21;101531.44;;;25.63;26.95
45040;BME280;30778;53.574;7.770;2022-08-21T06:04:46;101530.09;;;25.87;26.64
45040;BME280;30778;53.574;7.770;2022-08-21T06:07:14;101516.94;;;27.13;26.03
45040;BME280;30778;53.574;7.770;2022-08-21T06:09:39;101519.22;;;27.07;24.28
45040;BME280;30778;53.574;7.770;2022-08-21T06:12:07;101513.00;;;27.25;24.68
45040;BME280;30778;53.574;7.770;2022-08-21T06:14:34;101518.22;;;26.90;25.24
45040;BME280;30778;53.574;7.770;2022-08-21T06:17:08;101519.19;;;27.43;24.30
45040;BME280;30778;53.574;7.770;2022-08-21T06:19:35;101509.63;;;27.67;24.73
45040;BME280;30778;53.574;7.770;2022-08-21T06:22:01;101516.53;;;27.51;24.44
45040;BME280;30778;53.574;7.770;2022-08-21T06:24:27;101504.59;;;28.49;23.25
45040;BME280;30778;53.574;7.770;2022-08-21T06:26:53;101510.41;;;29.11;22.48
45040;BME280;30778;53.574;7.770;2022-08-21T06:29:18;101507.69;;;29.36;22.91
45040;BME280;30778;53.574;7.770;2022-08-21T06:31:46;101513.09;;;29.92;21.84
45040;BME280;30778;53.574;7.770;2022-08-21T06:34:12;101507.28;;;29.72;21.29
45040;BME280;30778;53.574;7.770;2022-08-21T06:36:38;101513.59;;;29.95;21.24
45040;BME280;30778;53.574;7.770;2022-08-21T06:39:04;101507.59;;;28.54;22.71
45040;BME280;30778;53.574;7.770;2022-08-21T06:41:29;101518.19;;;29.87;21.60
45040;BME280;30778;53.574;7.770;2022-08-21T06:43:56;101520.00;;;29.94;21.64
45040;BME280;30778;53.574;7.770;2022-08-21T06:46:23;101520.44;;;28.68;22.75
45040;BME280;30778;53.574;7.770;2022-08-21T06:48:49;101515.09;;;27.91;23.78
45040;BME280;30778;53.574;7.770;2022-08-21T06:51:15;101513.75;;;28.97;22.40
45040;BME280;30778;53.574;7.770;2022-08-21T06:53:41;101511.53;;;28.68;22.87
45040;BME280;30778;53.574;7.770;2022-08-21T06:56:06;101521.59;;;27.55;24.04
45040;BME280;30778;53.574;7.770;2022-08-21T06:58:32;101514.34;;;27.73;25.71
45040;BME280;30778;53.574;7.770;2022-08-21T07:00:57;101517.06;;;29.65;22.55
45040;BME280;30778;53.574;7.770;2022-08-21T07:03:29;101514.00;;;30.55;21.33
45040;BME280;30778;53.574;7.770;2022-08-21T07:05:56;101510.69;;;30.13;21.76
45040;BME280;30778;53.574;7.770;2022-08-21T07:08:24;101514.81;;;30.55;21.77
45040;BME280;30778;53.574;7.770;2022-08-21T07:10:50;101515.31;;;30.59;20.59
45040;BME280;30778;53.574;7.770;2022-08-21T07:13:16;101509.41;;;30.24;21.26
45040;BME280;30778;53.574;7.770;2022-08-21T07:15:42;101501.94;;;28.90;22.70
45040;BME280;30778;53.574;7.770;2022-08-21T07:18:08;101504.66;;;29.31;22.61
45040;BME280;30778;53.574;7.770;2022-08-21T07:20:34;101497.78;;;29.04;23.75
45040;BME280;30778;53.574;7.770;2022-08-21T07:23:02;101504.44;;;30.13;22.98
45040;BME280;30778;53.574;7.770;2022-08-21T07:25:28;101491.22;;;29.14;22.64
45040;BME280;30778;53.574;7.770;2022-08-21T07:27:54;101493.81;;;28.32;24.04
45040;BME280;30778;53.574;7.770;2022-08-21T07:30:21;101501.63;;;26.41;26.40
45040;BME280;30778;53.574;7.770;2022-08-21T07:32:46;101496.38;;;27.03;26.17
45040;BME280;30778;53.574;7.770;2022-08-21T07:35:15;101503.22;;;26.16;26.69
45040;BME280;30778;53.574;7.770;2022-08-21T07:37:41;101497.66;;;27.35;26.51
45040;BME280;30778;53.574;7.770;2022-08-21T07:40:07;101492.22;;;28.81;24.26
45040;BME280;30778;53.574;7.770;2022-08-21T07:42:33;101491.25;;;28.15;24.62
45040;BME280;30778;53.574;7.770;2022-08-21T07:44:58;101498.78;;;29.27;23.42
45040;BME280;30778;53.574;7.770;2022-08-21T07:47:24;101497.13;;;30.22;22.90
45040;BME280;30778;53.574;7.770;2022-08-21T07:49:49;101490.53;;;28.80;25.11
45040;BME280;30778;53.574;7.770;2022-08-21T07:52:15;101492.06;;;28.15;25.50
45040;BME280;30778;53.574;7.770;2022-08-21T07:54:41;101492.81;;;28.50;25.02
45040;BME280;30778;53.574;7.770;2022-08-21T07:57:06;101497.44;;;26.57;27.90
45040;BME280;30778;53.574;7.770;2022-08-21T07:59:32;101490.91;;;28.18;25.66
45040;BME280;30778;53.574;7.770;2022-08-21T08:01:57;101490.13;;;29.73;24.29
45040;BME280;30778;53.574;7.770;2022-08-21T08:04:23;101490.75;;;29.75;23.69
45040;BME280;30778;53.574;7.770;2022-08-21T08:06:49;101490.81;;;28.60;25.51
45040;BME280;30778;53.574;7.770;2022-08-21T08:09:14;101497.91;;;29.43;23.85
45040;BME280;30778;53.574;7.770;2022-08-21T08:11:41;101502.41;;;30.15;23.49
45040;BME280;30778;53.574;7.770;2022-08-21T08:14:09;101500.03;;;30.20;24.02
45040;BME280;30778;53.574;7.770;2022-08-21T08:16:35;101497.16;;;29.74;24.03
45040;BME280;30778;53.574;7.770;2022-08-21T08:19:00;101493.50;;;29.67;23.85
45040;BME280;30778;53.574;7.770;2022-08-21T08:21:26;101496.25;;;29.09;24.50
45040;BME280;30778;53.574;7.770;2022-08-21T08:23:52;101503.16;;;29.92;23.66
45040;BME280;30778;53.574;7.770;2022-08-21T08:26:18;101501.84;;;30.51;22.51
45040;BME280;30778;53.574;7.770;2022-08-21T08:28:44;101503.31;;;29.19;24.43
45040;BME280;30778;53.574;7.770;2022-08-21T08:31:11;101501.81;;;29.00;24.47
45040;BME280;30778;53.574;7.770;2022-08-21T08:33:36;101509.66;;;29.67;24.14
45040;BME280;30778;53.574;7.770;2022-08-21T08:36:02;101505.66;;;28.81;24.67
45040;BME280;30778;53.574;7.770;2022-08-21T08:38:28;101501.09;;;28.81;24.94
45040;BME280;30778;53.574;7.770;2022-08-21T08:43:32;101514.56;;;29.30;24.71
45040;BME280;30778;53.574;7.770;2022-08-21T08:46:03;101505.81;;;30.86;23.08
45040;BME280;30778;53.574;7.770;2022-08-21T08:48:36;101511.19;;;28.63;25.93
45040;BME280;30778;53.574;7.770;2022-08-21T08:51:07;101505.94;;;29.68;24.81
45040;BME280;30778;53.574;7.770;2022-08-21T08:53:45;101500.31;;;28.30;26.11
45040;BME280;30778;53.574;7.770;2022-08-21T08:56:12;101509.16;;;26.56;28.57
45040;BME280;30778;53.574;7.770;2022-08-21T08:58:41;101492.72;;;28.84;26.15
45040;BME280;30778;53.574;7.770;2022-08-21T09:01:19;101498.81;;;29.83;24.75
45040;BME280;30778;53.574;7.770;2022-08-21T09:03:46;101507.09;;;28.00;25.70
45040;BME280;30778;53.574;7.770;2022-08-21T09:06:36;101501.22;;;27.44;26.71
45040;BME280;30778;53.574;7.770;2022-08-21T09:09:15;101504.28;;;25.39;29.16
45040;BME280;30778;53.574;7.770;2022-08-21T09:12:01;101497.25;;;24.89;30.17
45040;BME280;30778;53.574;7.770;2022-08-21T09:14:44;101499.53;;;25.03;31.01
45040;BME280;30778;53.574;7.770;2022-08-21T09:23:12;101508.44;;;26.36;28.28
45040;BME280;30778;53.574;7.770;2022-08-21T09:25:59;101507.22;;;26.48;27.52
45040;BME280;30778;53.574;7.770;2022-08-21T09:28:31;101500.81;;;25.76;28.60
45040;BME280;30778;53.574;7.770;2022-08-21T09:30:57;101502.28;;;25.60;27.57
45040;BME280;30778;53.574;7.770;2022-08-21T09:33:28;101497.78;;;25.51;27.93
45040;BME280;30778;53.574;7.770;2022-08-21T09:35:55;101501.63;;;26.41;27.23
45040;BME280;30778;53.574;7.770;2022-08-21T09:38:28;101500.91;;;24.88;28.66
45040;BME280;30778;53.574;7.770;2022-08-21T09:41:08;101500.66;;;25.77;28.19
45040;BME280;30778;53.574;7.770;2022-08-21T09:43:35;101506.13;;;25.29;28.49
45040;BME280;30778;53.574;7.770;2022-08-21T09:46:09;101497.09;;;24.81;28.83
45040;BME280;30778;53.574;7.770;2022-08-21T09:48:47;101514.81;;;26.07;28.12
45040;BME280;30778;53.574;7.770;2022-08-21T09:51:28;101508.81;;;24.99;29.34
45040;BME280;30778;53.574;7.770;2022-08-21T09:53:56;101505.88;;;24.33;31.32
45040;BME280;30778;53.574;7.770;2022-08-21T09:56:28;101506.69;;;24.64;29.44
45040;BME280;30778;53.574;7.770;2022-08-21T09:59:19;101503.00;;;25.43;28.50
45040;BME280;30778;53.574;7.770;2022-08-21T10:01:48;101499.75;;;25.39;28.63
45040;BME280;30778;53.574;7.770;2022-08-21T10:04:14;101504.84;;;25.33;28.82
45040;BME280;30778;53.574;7.770;2022-08-21T10:06:41;101501.16;;;24.56;29.89
45040;BME280;30778;53.574;7.770;2022-08-21T10:09:12;101500.34;;;25.33;29.21
45040;BME280;30778;53.574;7.770;2022-08-21T10:11:39;101503.13;;;25.61;27.80
45040;BME280;30778;53.574;7.770;2022-08-21T10:14:17;101502.41;;;26.06;28.22
45040;BME280;30778;53.574;7.770;2022-08-21T10:19:27;101505.59;;;26.83;25.98
45040;BME280;30778;53.574;7.770;2022-08-21T10:22:29;101492.41;;;27.25;25.87
45040;BME280;30778;53.574;7.770;2022-08-21T10:25:23;101495.50;;;26.77;26.24
45040;BME280;30778;53.574;7.770;2022-08-21T10:28:29;101499.31;;;26.01;26.96
45040;BME280;30778;53.574;7.770;2022-08-21T10:30:50;101497.00;;;26.16;27.80
45040;BME280;30778;53.574;7.770;2022-08-21T10:35:50;101489.63;;;26.18;26.46
45040;BME280;30778;53.574;7.770;2022-08-21T10:38:55;101492.81;;;26.59;26.35
45040;BME280;30778;53.574;7.770;2022-08-21T10:41:41;101486.50;;;25.57;26.68
45040;BME280;30778;53.574;7.770;2022-08-21T10:49:49;101497.91;;;25.97;27.74
45040;BME280;30778;53.574;7.770;2022-08-21T10:55:04;101496.91;;;25.51;28.23
45040;BME280;30778;53.574;7.770;2022-08-21T10:57:50;101488.41;;;25.84;25.14
45040;BME280;30778;53.574;7.770;2022-08-21T11:00:28;101489.94;;;25.77;26.65
45040;BME280;30778;53.574;7.770;2022-08-21T11:03:04;101498.03;;;26.05;26.64
45040;BME280;30778;53.574;7.770;2022-08-21T11:05:43;101499.63;;;26.25;25.87
45040;BME280;30778;53.574;7.770;2022-08-21T11:08:30;101493.31;;;26.98;25.03
45040;BME280;30778;53.574;7.770;2022-08-21T11:11:02;101488.66;;;27.44;24.94
45040;BME280;30778;53.574;7.770;2022-08-21T11:13:45;101499.94;;;27.48;23.74
45040;BME280;30778;53.574;7.770;2022-08-21T11:19:02;101488.78;;;25.90;25.72
45040;BME280;30778;53.574;7.770;2022-08-21T11:21:39;101483.06;;;26.76;24.90
45040;BME280;30778;53.574;7.770;2022-08-21T11:24:37;101488.13;;;27.41;23.57
45040;BME280;30778;53.574;7.770;2022-08-21T11:29:41;101479.19;;;27.32;24.70
45040;BME280;30778;53.574;7.770;2022-08-21T11:38:27;101475.06;;;25.65;25.56
45040;BME280;30778;53.574;7.770;2022-08-21T11:43:39;101468.75;;;27.81;22.90
45040;BME280;30778;53.574;7.770;2022-08-21T11:51:25;101465.44;;;27.96;22.68
45040;BME280;30778;53.574;7.770;2022-08-21T11:54:07;101470.16;;;28.52;22.29
45040;BME280;30778;53.574;7.770;2022-08-21T11:56:41;101473.28;;;27.55;24.16
45040;BME280;30778;53.574;7.770;2022-08-21T11:59:16;101480.66;;;27.79;23.85
45040;BME280;30778;53.574;7.770;2022-08-21T12:01:46;101482.56;;;26.98;23.59
45040;BME280;30778;53.574;7.770;2022-08-21T12:04:29;101479.97;;;27.50;23.47
45040;BME280;30778;53.574;7.770;2022-08-21T12:06:56;101479.97;;;26.35;24.10
45040;BME280;30778;53.574;7.770;2022-08-21T12:12:45;101479.38;;;26.41;24.94
45040;BME280;30778;53.574;7.770;2022-08-21T12:14:50;101481.03;;;26.42;24.45
45040;BME280;30778;53.574;7.770;2022-08-21T12:17:21;101480.81;;;25.70;25.94
45040;BME280;30778;53.574;7.770;2022-08-21T12:20:01;101488.78;;;25.33;25.81
45040;BME280;30778;53.574;7.770;2022-08-21T12:22:39;101488.47;;;25.55;25.93
45040;BME280;30778;53.574;7.770;2022-08-21T12:25:16;101489.75;;;25.61;26.00
45040;BME280;30778;53.574;7.770;2022-08-21T12:28:02;101486.44;;;25.77;25.33
45040;BME280;30778;53.574;7.770;2022-08-21T12:30:39;101485.28;;;25.79;24.82
45040;BME280;30778;53.574;7.770;2022-08-21T12:33:20;101487.44;;;25.09;26.00
45040;BME280;30778;53.574;7.770;2022-08-21T12:35:47;101493.03;;;25.25;26.04
45040;BME280;30778;53.574;7.770;2022-08-21T12:38:19;101489.63;;;25.43;25.76
45040;BME280;30778;53.574;7.770;2022-08-21T12:41:04;101498.91;;;25.39;26.13
45040;BME280;30778;53.574;7.770;2022-08-21T12:43:35;101492.16;;;25.54;25.84
45040;BME280;30778;53.574;7.770;2022-08-21T12:46:03;101479.50;;;26.57;25.24
45040;BME280;30778;53.574;7.770;2022-08-21T12:48:43;101478.63;;;26.84;24.76
45040;BME280;30778;53.574;7.770;2022-08-21T12:51:21;101478.47;;;27.82;22.80
45040;BME280;30778;53.574;7.770;2022-08-21T12:53:56;101473.91;;;27.48;23.45
45040;BME280;30778;53.574;7.770;2022-08-21T12:56:27;101480.34;;;26.58;25.12
45040;BME280;30778;53.574;7.770;2022-08-21T12:59:00;101475.13;;;26.20;25.05
45040;BME280;30778;53.574;7.770;2022-08-21T13:01:37;101481.22;;;25.75;26.12
45040;BME280;30778;53.574;7.770;2022-08-21T13:04:09;101485.72;;;24.89;28.04
45040;BME280;30778;53.574;7.770;2022-08-21T13:06:43;101494.91;;;24.36;30.32
45040;BME280;30778;53.574;7.770;2022-08-21T13:09:12;101486.81;;;23.97;31.37
45040;BME280;30778;53.574;7.770;2022-08-21T13:11:42;101482.06;;;24.10;31.94
45040;BME280;30778;53.574;7.770;2022-08-21T13:14:42;101474.66;;;23.62;32.19
45040;BME280;30778;53.574;7.770;2022-08-21T13:17:10;101486.06;;;23.43;32.93
45040;BME280;30778;53.574;7.770;2022-08-21T13:19:36;101493.34;;;23.62;32.24
45040;BME280;30778;53.574;7.770;2022-08-21T13:22:03;101488.63;;;23.75;32.67
45040;BME280;30778;53.574;7.770;2022-08-21T13:24:33;101489.69;;;23.63;32.84
45040;BME280;30778;53.574;7.770;2022-08-21T13:26:58;101491.28;;;23.45;33.80
45040;BME280;30778;53.574;7.770;2022-08-21T13:29:33;101497.06;;;23.29;34.49
45040;BME280;30778;53.574;7.770;2022-08-21T13:32:04;101500.09;;;23.24;33.94
45040;BME280;30778;53.574;7.770;2022-08-21T13:34:35;101501.09;;;23.23;34.70
45040;BME280;30778;53.574;7.770;2022-08-21T13:37:07;101502.38;;;23.08;34.59
45040;BME280;30778;53.574;7.770;2022-08-21T13:39:33;101507.19;;;23.14;34.55
45040;BME280;30778;53.574;7.770;2022-08-21T13:42:02;101504.47;;;22.61;34.88
45040;BME280;30778;53.574;7.770;2022-08-21T13:44:40;101502.59;;;22.17;35.67
45040;BME280;30778;53.574;7.770;2022-08-21T13:47:06;101503.38;;;22.63;35.23
45040;BME280;30778;53.574;7.770;2022-08-21T13:49:36;101515.19;;;22.82;35.24